Terminal Aerodrome Forecast
Issued by NWS

Home | Current Version | Previous Version | Text Only | Print | Product List | Glossary On
Versions: 1 2 3 4 5 6 7 8 9 10 11 12 13 14 15 16 17 18 19 20 21 22 23
000
FTUS46 KLOX 301151
TAFSBP
TAF
KSBP 301151Z 3012/0112 VRB03KT P6SM SCT015
     FM301800 30012KT P6SM FEW025 SCT040
     FM302100 31015G23KT P6SM SCT050
     FM010200 31007KT P6SM SKC
     FM010700 VRB03KT P6SM SKC=

USA.gov is the U.S. government's official web portal to all federal, state and local government web resources and services.